createdAt,value
2022-11-15T00:04:02.521Z,86.13
2022-11-15T00:09:05.373Z,86.05
2022-11-15T00:14:08.381Z,86.28
2022-11-15T00:19:11.504Z,86.35
2022-11-15T00:24:14.454Z,86.38
2022-11-15T00:29:17.297Z,86.49
2022-11-15T00:34:20.215Z,86.82
2022-11-15T00:39:24.449Z,86.98
2022-11-15T00:44:29.785Z,86.81
2022-11-15T00:49:32.797Z,86.64
2022-11-15T00:54:35.647Z,86.52
2022-11-15T00:59:40.620Z,86.52
2022-11-15T01:04:43.497Z,86.68
2022-11-15T01:09:48.471Z,86.71
2022-11-15T01:14:52.682Z,86.79
2022-11-15T01:19:55.551Z,86.95
2022-11-15T01:24:59.184Z,86.82
2022-11-15T01:30:02.366Z,86.92
2022-11-15T01:35:08.004Z,87.08
2022-11-15T01:40:11.748Z,87.20
2022-11-15T01:45:17.727Z,87.21
2022-11-15T01:50:25.572Z,87.19
2022-11-15T01:55:28.754Z,86.95
2022-11-15T02:00:31.743Z,87.19
2022-11-15T02:05:37.899Z,87.39
2022-11-15T02:10:43.965Z,87.52
2022-11-15T02:16:30.430Z,87.80
2022-11-15T02:21:42.062Z,87.88
2022-11-15T02:27:21.114Z,88.02
2022-11-15T02:32:41.598Z,88.15
2022-11-15T02:37:55.142Z,88.10
2022-11-15T02:43:31.514Z,88.09
2022-11-15T02:48:35.222Z,88.13
2022-11-15T02:53:38.425Z,88.21
2022-11-15T02:58:59.619Z,88.15
2022-11-15T03:05:10.872Z,88.21
2022-11-15T03:10:24.200Z,88.49
2022-11-15T03:15:38.357Z,88.46
2022-11-15T03:20:41.337Z,88.51
2022-11-15T03:25:47.856Z,88.61
2022-11-15T03:30:52.507Z,88.56
2022-11-15T03:35:58.515Z,88.39
2022-11-15T03:41:06.589Z,88.43
2022-11-15T03:46:38.212Z,88.38
2022-11-15T03:51:41.547Z,88.72
2022-11-15T03:56:45.022Z,88.51
2022-11-15T04:01:48.140Z,88.54
2022-11-15T04:07:00.490Z,88.38
2022-11-15T04:12:03.722Z,88.35
2022-11-15T04:17:06.670Z,88.56
2022-11-15T04:22:28.363Z,88.58
2022-11-15T04:27:31.598Z,88.58
2022-11-15T04:32:34.517Z,88.48
2022-11-15T04:37:38.831Z,88.52
2022-11-15T04:42:43.744Z,88.50
2022-11-15T04:47:47.086Z,88.55
2022-11-15T04:52:54.936Z,88.84
2022-11-15T04:58:05.328Z,88.89
2022-11-15T05:03:29.613Z,89.02
2022-11-15T05:08:33.623Z,88.92
2022-11-15T05:13:36.421Z,88.78
2022-11-15T05:18:41.728Z,88.88
2022-11-15T05:23:44.701Z,89.07
2022-11-15T05:28:47.819Z,89.34
2022-11-15T05:33:52.733Z,89.48
2022-11-15T05:38:55.702Z,89.84
2022-11-15T05:44:03.742Z,89.90
2022-11-15T05:49:07.691Z,89.64
2022-11-15T05:54:11.139Z,89.71
2022-11-15T05:59:14.080Z,89.50
2022-11-15T06:04:16.931Z,89.48
2022-11-15T06:09:20.895Z,89.59
2022-11-15T06:14:23.938Z,89.82
2022-11-15T06:19:26.941Z,89.85
2022-11-15T06:24:29.781Z,90.01
2022-11-15T06:29:33.974Z,89.87
2022-11-15T06:34:38.155Z,89.78
2022-11-15T06:39:41.092Z,89.95
2022-11-15T06:44:44.421Z,89.97
2022-11-15T06:49:47.360Z,90.18
2022-11-15T06:54:50.443Z,90.28
2022-11-15T06:59:57.788Z,90.31
2022-11-15T07:10:47.448Z,90.25
2022-11-15T07:15:50.425Z,90.24
2022-11-15T07:20:56.163Z,90.53
2022-11-15T07:25:59.577Z,90.58
2022-11-15T07:31:07.759Z,90.34
2022-11-15T07:36:10.792Z,90.15
2022-11-15T07:41:13.728Z,90.47
2022-11-15T07:46:28.014Z,90.31
2022-11-15T07:51:30.853Z,90.53
2022-11-15T07:56:36.220Z,90.53
2022-11-15T08:01:39.662Z,90.18
2022-11-15T08:06:42.635Z,90.47
2022-11-15T08:11:46.802Z,90.12
2022-11-15T08:16:49.787Z,89.79
2022-11-15T08:21:52.613Z,89.50
2022-11-15T08:26:55.521Z,89.32
2022-11-15T08:31:58.802Z,89.10
2022-11-15T08:37:01.603Z,89.14
2022-11-15T08:42:04.538Z,89.10
2022-11-15T08:47:07.482Z,88.78
2022-11-15T08:52:10.400Z,88.55
2022-11-15T08:57:13.320Z,88.66
2022-11-15T09:02:18.818Z,88.40
2022-11-15T09:07:21.746Z,88.06
2022-11-15T09:12:25.389Z,88.63
2022-11-15T09:17:28.225Z,88.63
2022-11-15T09:22:31.047Z,88.26
2022-11-15T09:27:34.038Z,88.26
2022-11-15T09:32:39.384Z,88.17
2022-11-15T09:37:42.710Z,87.90
2022-11-15T09:43:37.411Z,87.87
2022-11-15T09:48:51.700Z,87.86
2022-11-15T09:59:54.414Z,87.84
2022-11-15T10:05:00.003Z,87.78
2022-11-15T10:10:18.773Z,87.67
2022-11-15T10:15:23.695Z,87.69
2022-11-15T10:21:02.903Z,87.80
2022-11-15T10:26:07.142Z,87.95
2022-11-15T10:31:29.994Z,87.50
2022-11-15T10:36:32.996Z,87.28
2022-11-15T10:41:41.371Z,87.79
2022-11-15T10:47:08.412Z,87.84
2022-11-15T10:52:23.372Z,87.78
2022-11-15T10:57:50.231Z,87.71
2022-11-15T11:02:53.149Z,87.21
2022-11-15T11:08:24.402Z,87.32
2022-11-15T11:13:39.197Z,87.16
2022-11-15T11:19:09.348Z,87.08
2022-11-15T11:24:17.298Z,86.94
2022-11-15T11:30:02.175Z,87.32
2022-11-15T11:35:20.164Z,87.26
2022-11-15T11:40:35.510Z,87.17
2022-11-15T11:46:05.256Z,87.35
2022-11-15T11:51:39.287Z,86.99
2022-11-15T11:56:44.904Z,87.00
2022-11-15T12:01:47.850Z,87.26
2022-11-15T12:07:15.141Z,87.07
2022-11-15T12:12:35.991Z,87.10
2022-11-15T12:17:41.131Z,86.71
2022-11-15T12:22:59.463Z,86.69
2022-11-15T12:29:04.800Z,87.05
2022-11-15T12:34:21.773Z,86.69
2022-11-15T12:40:10.126Z,86.56
2022-11-15T12:45:38.355Z,85.87
2022-11-15T12:50:59.870Z,86.20
2022-11-15T12:56:17.972Z,86.53
2022-11-15T13:01:35.007Z,86.27
2022-11-15T13:07:02.670Z,86.68
2022-11-15T13:12:16.010Z,86.69
2022-11-15T13:17:29.063Z,86.77
2022-11-15T13:22:54.013Z,86.46
2022-11-15T13:28:00.405Z,86.26
2022-11-15T13:33:34.531Z,86.51
2022-11-15T13:38:41.653Z,86.59
2022-11-15T13:43:45.027Z,86.47
2022-11-15T13:48:56.503Z,86.28
2022-11-15T13:54:21.169Z,86.40
2022-11-15T13:59:32.928Z,86.51
2022-11-15T14:04:35.799Z,86.28
2022-11-15T14:10:42.679Z,86.40
2022-11-15T14:15:45.890Z,86.69
2022-11-15T14:20:48.749Z,86.87
2022-11-15T14:25:58.764Z,86.72
2022-11-15T14:31:03.151Z,86.72
2022-11-15T14:36:21.018Z,86.68
2022-11-15T14:41:25.950Z,86.88
2022-11-15T14:46:28.863Z,86.86
2022-11-15T14:51:34.014Z,86.74
2022-11-15T14:56:36.969Z,86.73
2022-11-15T15:01:40.563Z,86.72
2022-11-15T15:06:43.436Z,86.85
2022-11-15T15:11:46.889Z,86.82
2022-11-15T15:16:49.896Z,86.88
2022-11-15T15:21:52.766Z,86.81
2022-11-15T15:26:56.623Z,87.07
2022-11-15T15:32:00.741Z,87.07
2022-11-15T15:37:27.604Z,87.11
2022-11-15T15:42:32.915Z,87.00
2022-11-15T15:47:36.212Z,87.20
2022-11-15T15:52:39.081Z,87.19
2022-11-15T15:57:42.321Z,87.38
2022-11-15T16:02:45.288Z,87.27
2022-11-15T16:07:49.410Z,87.24
2022-11-15T16:12:53.184Z,87.44
2022-11-15T16:18:01.370Z,87.57
2022-11-15T16:23:09.142Z,87.54
2022-11-15T16:28:29.051Z,87.70
2022-11-15T16:33:32.312Z,87.87
2022-11-15T16:38:36.815Z,87.97
2022-11-15T16:43:39.958Z,87.86
2022-11-15T16:48:43.579Z,88.15
2022-11-15T16:53:49.319Z,87.86
2022-11-15T16:58:55.245Z,88.13
2022-11-15T17:03:59.760Z,88.33
2022-11-15T17:09:02.592Z,88.58
2022-11-15T17:14:05.528Z,88.37
2022-11-15T17:19:16.480Z,88.50
2022-11-15T17:24:21.520Z,88.27
2022-11-15T17:29:28.586Z,88.41
2022-11-15T17:34:31.559Z,88.49
2022-11-15T17:39:34.423Z,88.58
2022-11-15T17:44:37.267Z,88.44
2022-11-15T17:49:41.223Z,88.76
2022-11-15T17:54:46.619Z,88.53
2022-11-15T17:59:50.806Z,88.54
2022-11-15T18:04:54.784Z,88.70
2022-11-15T18:09:57.705Z,88.99
2022-11-15T18:15:04.494Z,88.83
2022-11-15T18:20:08.442Z,88.87
2022-11-15T18:25:11.509Z,88.84
2022-11-15T18:30:14.780Z,88.90
2022-11-15T18:35:20.038Z,88.93
2022-11-15T18:40:24.329Z,89.38
2022-11-15T18:45:27.775Z,89.66
2022-11-15T18:50:30.754Z,89.56
2022-11-15T18:55:35.389Z,89.68
2022-11-15T19:00:38.325Z,89.33
2022-11-15T19:05:58.726Z,89.14
2022-11-15T19:11:30.072Z,89.04
2022-11-15T19:16:39.325Z,89.12
2022-11-15T19:21:43.197Z,89.19
2022-11-15T19:26:46.577Z,89.02
2022-11-15T19:31:55.645Z,89.00
2022-11-15T19:36:59.555Z,89.05
2022-11-15T19:42:02.983Z,88.90
2022-11-15T19:47:09.471Z,88.65
2022-11-15T19:52:12.581Z,88.68
2022-11-15T19:57:21.186Z,88.51
2022-11-15T20:02:24.437Z,88.69
2022-11-15T20:07:27.858Z,88.72
2022-11-15T20:12:32.683Z,88.67
2022-11-15T20:17:37.030Z,88.56
2022-11-15T20:22:40.228Z,88.62
2022-11-15T20:27:44.487Z,88.42
2022-11-15T20:32:47.385Z,88.47
2022-11-15T20:37:52.806Z,88.79
2022-11-15T20:42:55.876Z,88.98
2022-11-15T20:47:59.414Z,88.86
2022-11-15T20:53:02.318Z,88.94
2022-11-15T20:58:05.432Z,89.27
2022-11-15T21:03:08.378Z,89.22
2022-11-15T21:08:13.600Z,89.25
2022-11-15T21:13:17.963Z,89.45
2022-11-15T21:18:25.913Z,89.53
2022-11-15T21:23:28.796Z,89.03
2022-11-15T21:28:32.175Z,89.30
2022-11-15T21:33:35.337Z,89.17
2022-11-15T21:38:38.914Z,89.71
2022-11-15T21:43:41.890Z,89.77
2022-11-15T21:48:45.152Z,89.65
2022-11-15T21:53:48.097Z,89.67
2022-11-15T21:58:52.638Z,89.74
2022-11-15T22:03:56.225Z,89.59
2022-11-15T22:08:59.089Z,89.58
2022-11-15T22:14:02.256Z,89.63
2022-11-15T22:19:05.315Z,89.49
2022-11-15T22:24:09.356Z,89.72
2022-11-15T22:29:12.282Z,89.36
2022-11-15T22:34:17.105Z,89.58
2022-11-15T22:39:20.445Z,89.64
2022-11-15T22:44:23.437Z,89.77
2022-11-15T22:49:27.313Z,89.62
2022-11-15T22:54:30.488Z,89.99
2022-11-15T22:59:35.954Z,89.80
2022-11-15T23:04:39.324Z,90.03
2022-11-15T23:09:44.383Z,90.03
2022-11-15T23:14:51.311Z,90.30
2022-11-15T23:19:54.396Z,90.31
2022-11-15T23:24:59.613Z,90.39
2022-11-15T23:30:21.823Z,90.26
2022-11-15T23:35:24.855Z,90.47
2022-11-15T23:40:27.834Z,90.25
2022-11-15T23:45:30.876Z,90.66
2022-11-15T23:50:35.506Z,90.28
2022-11-15T23:55:38.637Z,90.19
